Time;durP1;ratioP1;P1;durP2;ratioP2;P2;SDS_P1;SDS_P2;PMS_P1;PMS_P2;Temp;Humidity;BMP_temperature;BMP_pressure;BME280_temperature;BME280_humidity;BME280_pressure;Samples;Min_cycle;Max_cycle;Signal;HPM_P1;HPM_P2
2024/03/13 00:00:12;;;;;;;13.23;9.05;;;;;;;;;;494407;28;988;-86
2024/03/13 00:00:28;;;;;;;13.75;9.13;;;;;;;;;;490380;28;1335;-84
2024/03/13 00:00:43;;;;;;;12.95;9.15;;;;;;;;;;494767;28;1172;-85
2024/03/13 00:01:03;;;;;;;12.23;9.02;;;;;;;;;;495213;28;1265;-85
2024/03/13 00:01:18;;;;;;;12.13;8.80;;;;;;;;;;497709;28;1396;-85
2024/03/13 00:01:35;;;;;;;12.45;8.60;;;;;;;;;;495624;28;958;-85
2024/03/13 00:01:51;;;;;;;11.88;8.80;;;;;;;;;;497229;28;1163;-84
2024/03/13 00:02:08;;;;;;;12.63;9.15;;;;;;;;;;496089;28;1088;-85
2024/03/13 00:02:23;;;;;;;13.43;8.98;;;;;;;;;;492060;28;1372;-84
2024/03/13 00:02:42;;;;;;;12.20;8.68;;;;;;;;;;494220;28;1302;-85
2024/03/13 00:02:58;;;;;;;12.70;8.75;;;;;;;;;;497300;28;1345;-85
2024/03/13 00:03:15;;;;;;;12.88;9.10;;;;;;;;;;498588;28;972;-85
2024/03/13 00:03:32;;;;;;;12.57;9.38;;;;;;;;;;497780;28;1302;-84
2024/03/13 00:03:50;;;;;;;12.77;9.43;;;;;;;;;;497552;28;1322;-85
2024/03/13 00:04:06;;;;;;;13.25;9.48;;;;;;;;;;495472;28;1454;-85
2024/03/13 00:04:22;;;;;;;12.65;9.18;;;;;;;;;;494923;28;1089;-85
2024/03/13 00:04:44;;;;;;;12.70;9.10;;;;;;;;;;495633;28;1347;-84
2024/03/13 00:04:59;;;;;;;13.60;9.23;;;;;;;;;;497653;28;1093;-84
2024/03/13 00:05:15;;;;;;;13.23;8.98;;;;;;;;;;497544;28;1244;-84
2024/03/13 00:05:30;;;;;;;12.00;8.88;;;;;;;;;;496532;28;1246;-84
2024/03/13 00:05:47;;;;;;;12.27;9.17;;;;;;;;;;500908;28;1059;-83
2024/03/13 00:06:04;;;;;;;12.80;9.32;;;;;;;;;;501439;28;1318;-85
2024/03/13 00:06:21;;;;;;;13.25;9.43;;;;;;;;;;500991;28;1367;-84
2024/03/13 00:06:36;;;;;;;13.30;9.40;;;;;;;;;;497053;28;1265;-84
2024/03/13 00:06:52;;;;;;;12.77;8.93;;;;;;;;;;499754;28;997;-84
2024/03/13 00:07:10;;;;;;;12.80;8.55;;;;;;;;;;502582;28;1210;-84
2024/03/13 00:07:26;;;;;;;12.65;8.52;;;;;;;;;;495283;28;1146;-85
2024/03/13 00:07:42;;;;;;;12.05;8.80;;;;;;;;;;497855;28;1154;-83
2024/03/13 00:07:57;;;;;;;11.83;9.07;;;;;;;;;;498095;28;1242;-84
2024/03/13 00:08:13;;;;;;;12.40;9.05;;;;;;;;;;498198;28;1114;-84
2024/03/13 00:08:29;;;;;;;13.30;9.18;;;;;;;;;;492714;28;1286;-84
2024/03/13 00:08:44;;;;;;;12.97;9.07;;;;;;;;;;497597;28;1056;-84
2024/03/13 00:09:00;;;;;;;12.63;9.00;;;;;;;;;;499157;28;1089;-83
2024/03/13 00:09:20;;;;;;;12.48;8.98;;;;;;;;;;499380;28;969;-84
2024/03/13 00:09:53;;;;;;;12.25;8.95;;;;;;;;;;498000;28;1265;-82
2024/03/13 00:10:09;;;;;;;14.25;9.15;;;;;;;;;;500622;28;1132;-84
2024/03/13 00:10:26;;;;;;;12.13;8.85;;;;;;;;;;495243;28;1174;-84
2024/03/13 00:10:41;;;;;;;12.75;8.90;;;;;;;;;;497033;28;1255;-85
2024/03/13 00:10:57;;;;;;;12.40;9.00;;;;;;;;;;498576;28;1221;-85
2024/03/13 00:11:13;;;;;;;11.98;9.07;;;;;;;;;;496102;28;1443;-84
2024/03/13 00:11:29;;;;;;;12.38;9.13;;;;;;;;;;494892;28;1136;-83
2024/03/13 00:11:44;;;;;;;11.57;8.57;;;;;;;;;;496194;28;1180;-84
2024/03/13 00:12:00;;;;;;;11.60;8.40;;;;;;;;;;494551;28;1236;-85
2024/03/13 00:12:17;;;;;;;12.82;8.77;;;;;;;;;;494804;28;1127;-85
2024/03/13 00:12:34;;;;;;;13.10;8.88;;;;;;;;;;492879;28;1136;-85
2024/03/13 00:12:50;;;;;;;13.13;8.90;;;;;;;;;;495787;28;1317;-84
2024/03/13 00:13:06;;;;;;;13.02;8.75;;;;;;;;;;497186;28;1283;-84
2024/03/13 00:13:23;;;;;;;12.35;8.73;;;;;;;;;;494414;28;988;-84
2024/03/13 00:13:39;;;;;;;11.20;8.57;;;;;;;;;;497794;28;1380;-84
2024/03/13 00:13:55;;;;;;;11.45;8.60;;;;;;;;;;498984;28;1479;-84
2024/03/13 00:14:10;;;;;;;12.20;8.77;;;;;;;;;;500517;28;1179;-85
2024/03/13 00:14:27;;;;;;;11.87;8.70;;;;;;;;;;496286;28;1186;-84
2024/03/13 00:14:49;;;;;;;11.77;8.50;;;;;;;;;;497780;28;1112;-84
2024/03/13 00:15:06;;;;;;;11.60;8.50;;;;;;;;;;495144;28;1351;-85
2024/03/13 00:15:21;;;;;;;12.25;8.82;;;;;;;;;;495638;28;1136;-84
2024/03/13 00:15:38;;;;;;;12.40;9.03;;;;;;;;;;493456;28;1077;-84
2024/03/13 00:15:55;;;;;;;12.55;9.07;;;;;;;;;;494687;28;1318;-85
2024/03/13 00:16:12;;;;;;;13.00;8.63;;;;;;;;;;496706;28;1473;-84
2024/03/13 00:16:31;;;;;;;13.02;8.55;;;;;;;;;;493026;28;1254;-85
2024/03/13 00:16:46;;;;;;;11.95;8.75;;;;;;;;;;498697;28;1117;-84
2024/03/13 00:17:02;;;;;;;13.15;9.18;;;;;;;;;;497036;28;1061;-85
2024/03/13 00:17:20;;;;;;;12.70;9.10;;;;;;;;;;496825;28;1183;-85
2024/03/13 00:17:35;;;;;;;11.13;8.57;;;;;;;;;;493595;28;1164;-85
2024/03/13 00:17:51;;;;;;;11.98;8.48;;;;;;;;;;495540;28;1333;-84
2024/03/13 00:18:07;;;;;;;11.87;8.30;;;;;;;;;;494071;28;1203;-84
2024/03/13 00:18:23;;;;;;;11.25;8.32;;;;;;;;;;492350;28;1242;-85
2024/03/13 00:18:38;;;;;;;11.27;8.40;;;;;;;;;;493949;28;1384;-85
2024/03/13 00:18:54;;;;;;;12.33;8.67;;;;;;;;;;496657;28;1997;-85
2024/03/13 00:19:10;;;;;;;12.23;8.45;;;;;;;;;;495734;28;1080;-84
2024/03/13 00:19:25;;;;;;;11.35;8.10;;;;;;;;;;494529;28;1259;-85
2024/03/13 00:19:41;;;;;;;11.13;8.43;;;;;;;;;;494879;28;1164;-85
2024/03/13 00:19:57;;;;;;;11.18;8.68;;;;;;;;;;496975;28;914;-85
2024/03/13 00:20:14;;;;;;;11.70;8.80;;;;;;;;;;495958;28;1294;-85
2024/03/13 00:20:30;;;;;;;12.13;8.70;;;;;;;;;;493423;28;1298;-84
2024/03/13 00:20:46;;;;;;;12.18;8.80;;;;;;;;;;499506;28;926;-85
2024/03/13 00:21:02;;;;;;;12.48;8.77;;;;;;;;;;496479;28;1152;-84
2024/03/13 00:21:18;;;;;;;12.13;8.23;;;;;;;;;;496700;28;1068;-84
2024/03/13 00:21:35;;;;;;;12.20;8.55;;;;;;;;;;497316;28;954;-84
2024/03/13 00:21:51;;;;;;;12.27;8.70;;;;;;;;;;501672;28;1270;-85
2024/03/13 00:22:07;;;;;;;12.93;8.70;;;;;;;;;;500536;28;1105;-84
2024/03/13 00:22:25;;;;;;;11.98;8.55;;;;;;;;;;497207;28;1218;-83
2024/03/13 00:22:41;;;;;;;10.90;8.30;;;;;;;;;;495183;28;1384;-84
2024/03/13 00:22:57;;;;;;;11.23;8.50;;;;;;;;;;496706;28;1212;-85
2024/03/13 00:23:12;;;;;;;11.57;8.50;;;;;;;;;;497055;28;1255;-85
2024/03/13 00:23:28;;;;;;;11.80;8.35;;;;;;;;;;493082;28;1287;-84
2024/03/13 00:23:44;;;;;;;11.77;8.23;;;;;;;;;;496539;28;1202;-83
2024/03/13 00:23:59;;;;;;;10.65;7.90;;;;;;;;;;494303;28;1110;-85
2024/03/13 00:24:16;;;;;;;10.85;8.15;;;;;;;;;;496348;28;1093;-84
2024/03/13 00:24:32;;;;;;;11.45;8.50;;;;;;;;;;490299;28;1288;-85
2024/03/13 00:24:49;;;;;;;11.82;8.55;;;;;;;;;;496560;28;1083;-84
2024/03/13 00:25:10;;;;;;;12.45;8.50;;;;;;;;;;496614;28;1138;-85
2024/03/13 00:25:25;;;;;;;12.30;8.50;;;;;;;;;;493911;28;1035;-84
2024/03/13 00:25:41;;;;;;;11.63;8.40;;;;;;;;;;498654;28;1385;-85
2024/03/13 00:25:57;;;;;;;10.57;8.07;;;;;;;;;;500546;28;997;-86
2024/03/13 00:26:12;;;;;;;10.85;8.15;;;;;;;;;;500975;28;1029;-86
2024/03/13 00:26:29;;;;;;;10.93;8.00;;;;;;;;;;497624;28;1443;-84
2024/03/13 00:26:50;;;;;;;10.77;8.00;;;;;;;;;;501477;28;1204;-85
2024/03/13 00:27:05;;;;;;;11.38;8.45;;;;;;;;;;502032;28;988;-84
2024/03/13 00:27:21;;;;;;;11.55;8.20;;;;;;;;;;501600;28;945;-84
2024/03/13 00:27:37;;;;;;;11.57;8.20;;;;;;;;;;499879;28;1135;-83
2024/03/13 00:27:53;;;;;;;11.73;8.30;;;;;;;;;;501494;28;1329;-84
2024/03/13 00:28:09;;;;;;;11.60;8.30;;;;;;;;;;500954;28;1183;-84
2024/03/13 00:28:24;;;;;;;11.23;8.38;;;;;;;;;;497851;28;1360;-84
2024/03/13 00:28:40;;;;;;;11.45;8.10;;;;;;;;;;500758;28;1191;-85
2024/03/13 00:28:55;;;;;;;11.03;7.93;;;;;;;;;;497788;28;1250;-84
2024/03/13 00:29:11;;;;;;;11.48;8.18;;;;;;;;;;500207;28;1290;-84
2024/03/13 00:29:27;;;;;;;11.20;7.75;;;;;;;;;;496850;28;1057;-84
2024/03/13 00:29:45;;;;;;;10.97;7.63;;;;;;;;;;498501;28;1164;-85
2024/03/13 00:30:00;;;;;;;10.50;7.65;;;;;;;;;;500930;28;1312;-84
2024/03/13 00:30:16;;;;;;;10.73;8.18;;;;;;;;;;498125;28;1317;-84
2024/03/13 00:30:32;;;;;;;11.18;8.35;;;;;;;;;;496678;28;901;-84
2024/03/13 00:30:48;;;;;;;12.02;8.10;;;;;;;;;;499896;28;1311;-85
2024/03/13 00:31:03;;;;;;;12.47;8.20;;;;;;;;;;498378;28;1582;-84
2024/03/13 00:31:19;;;;;;;10.43;7.95;;;;;;;;;;496183;28;1442;-84
2024/03/13 00:31:35;;;;;;;9.75;7.65;;;;;;;;;;494157;28;1280;-84
2024/03/13 00:31:52;;;;;;;11.93;7.85;;;;;;;;;;497727;28;1397;-84
2024/03/13 00:32:08;;;;;;;11.70;8.02;;;;;;;;;;500894;28;1128;-84
2024/03/13 00:32:26;;;;;;;10.07;7.72;;;;;;;;;;496879;28;1200;-84
2024/03/13 00:32:42;;;;;;;10.27;7.40;;;;;;;;;;496417;28;1541;-84
2024/03/13 00:32:57;;;;;;;10.65;7.97;;;;;;;;;;495190;28;1207;-85
2024/03/13 00:33:13;;;;;;;11.32;8.48;;;;;;;;;;496105;28;898;-84
2024/03/13 00:33:29;;;;;;;11.82;8.52;;;;;;;;;;493279;28;1005;-83
2024/03/13 00:33:46;;;;;;;11.85;8.40;;;;;;;;;;498610;28;1184;-84
2024/03/13 00:34:02;;;;;;;11.25;8.13;;;;;;;;;;495734;28;1204;-85
2024/03/13 00:34:18;;;;;;;11.35;8.20;;;;;;;;;;497092;28;1097;-83
2024/03/13 00:34:36;;;;;;;11.80;8.38;;;;;;;;;;493488;28;1131;-84
2024/03/13 00:34:52;;;;;;;10.73;7.97;;;;;;;;;;502024;28;1266;-84
2024/03/13 00:35:08;;;;;;;10.18;7.60;;;;;;;;;;499948;28;1211;-84
2024/03/13 00:35:24;;;;;;;10.07;7.60;;;;;;;;;;495628;28;1290;-84
2024/03/13 00:35:39;;;;;;;11.30;7.80;;;;;;;;;;498368;28;1253;-83
2024/03/13 00:35:55;;;;;;;11.32;7.90;;;;;;;;;;497891;28;1340;-84
2024/03/13 00:36:11;;;;;;;11.00;7.95;;;;;;;;;;497291;28;962;-84
2024/03/13 00:36:26;;;;;;;11.13;8.20;;;;;;;;;;496899;28;992;-84
2024/03/13 00:36:43;;;;;;;10.38;7.90;;;;;;;;;;498949;28;1350;-84
2024/03/13 00:36:59;;;;;;;10.40;7.60;;;;;;;;;;497789;28;1278;-84
2024/03/13 00:37:16;;;;;;;11.13;7.78;;;;;;;;;;500203;28;1132;-84
2024/03/13 00:37:32;;;;;;;10.48;7.60;;;;;;;;;;494731;28;1421;-83
2024/03/13 00:37:49;;;;;;;10.80;7.90;;;;;;;;;;498042;28;1044;-84
2024/03/13 00:38:05;;;;;;;11.27;7.95;;;;;;;;;;497486;28;1397;-83
2024/03/13 00:38:24;;;;;;;11.73;7.88;;;;;;;;;;497734;28;1326;-84
2024/03/13 00:38:40;;;;;;;10.27;7.45;;;;;;;;;;495492;28;1402;-84
2024/03/13 00:38:58;;;;;;;9.40;7.05;;;;;;;;;;499534;28;1946;-83
2024/03/13 00:39:15;;;;;;;10.95;7.80;;;;;;;;;;500199;28;1401;-85
2024/03/13 00:39:31;;;;;;;11.25;7.97;;;;;;;;;;496899;28;1355;-83
2024/03/13 00:39:47;;;;;;;10.70;7.82;;;;;;;;;;500136;28;987;-84
2024/03/13 00:40:06;;;;;;;10.60;7.72;;;;;;;;;;502400;28;1117;-84
2024/03/13 00:40:22;;;;;;;10.55;7.45;;;;;;;;;;500588;28;1082;-84
2024/03/13 00:40:39;;;;;;;10.25;7.53;;;;;;;;;;500135;28;1380;-83
2024/03/13 00:40:55;;;;;;;10.25;7.72;;;;;;;;;;497938;28;1518;-84
2024/03/13 00:41:11;;;;;;;10.68;7.70;;;;;;;;;;498183;28;1254;-82
2024/03/13 00:41:27;;;;;;;10.52;7.60;;;;;;;;;;497004;28;1353;-84
2024/03/13 00:41:43;;;;;;;10.15;7.32;;;;;;;;;;498632;28;1230;-84
2024/03/13 00:41:59;;;;;;;9.88;7.20;;;;;;;;;;499903;28;938;-84
2024/03/13 00:42:15;;;;;;;10.35;7.60;;;;;;;;;;498410;28;1208;-83
2024/03/13 00:42:30;;;;;;;9.97;7.60;;;;;;;;;;494973;28;1257;-84
2024/03/13 00:42:46;;;;;;;10.23;7.43;;;;;;;;;;502963;28;1033;-84
2024/03/13 00:43:02;;;;;;;10.88;7.53;;;;;;;;;;499096;28;1303;-84
2024/03/13 00:43:18;;;;;;;10.47;7.60;;;;;;;;;;499345;28;1242;-84
2024/03/13 00:43:33;;;;;;;10.07;7.60;;;;;;;;;;494512;28;1084;-84
2024/03/13 00:43:49;;;;;;;10.60;7.60;;;;;;;;;;497376;28;1029;-82
2024/03/13 00:44:05;;;;;;;11.00;7.60;;;;;;;;;;497099;28;989;-84
2024/03/13 00:44:22;;;;;;;10.98;7.65;;;;;;;;;;495186;28;1207;-83
2024/03/13 00:44:41;;;;;;;10.43;7.55;;;;;;;;;;494639;28;1410;-83
2024/03/13 00:44:57;;;;;;;10.02;7.45;;;;;;;;;;498900;28;1318;-84
2024/03/13 00:45:13;;;;;;;10.48;7.50;;;;;;;;;;496030;28;1434;-84
2024/03/13 00:45:29;;;;;;;10.18;7.40;;;;;;;;;;490550;28;1215;-84
2024/03/13 00:45:44;;;;;;;10.13;7.30;;;;;;;;;;498236;28;1304;-84
2024/03/13 00:46:00;;;;;;;9.73;7.33;;;;;;;;;;497842;28;1061;-84
2024/03/13 00:46:16;;;;;;;10.00;7.32;;;;;;;;;;500189;28;1305;-84
2024/03/13 00:46:32;;;;;;;10.23;7.40;;;;;;;;;;492868;28;1255;-84
2024/03/13 00:46:47;;;;;;;10.32;7.70;;;;;;;;;;497250;28;1334;-84
2024/03/13 00:47:03;;;;;;;10.17;7.40;;;;;;;;;;497662;28;1151;-83
2024/03/13 00:47:21;;;;;;;9.73;7.05;;;;;;;;;;497248;28;1215;-84
2024/03/13 00:47:37;;;;;;;10.27;7.25;;;;;;;;;;496407;28;1184;-84
2024/03/13 00:47:54;;;;;;;10.45;7.47;;;;;;;;;;496834;28;1108;-85
2024/03/13 00:48:11;;;;;;;10.18;7.10;;;;;;;;;;498163;28;1238;-84
2024/03/13 00:48:31;;;;;;;9.48;7.00;;;;;;;;;;496135;28;1493;-84
2024/03/13 00:48:47;;;;;;;9.10;6.78;;;;;;;;;;500303;28;1344;-85
2024/03/13 00:49:02;;;;;;;9.57;7.10;;;;;;;;;;503151;28;1198;-83
2024/03/13 00:49:18;;;;;;;9.03;7.40;;;;;;;;;;501079;28;1152;-84
2024/03/13 00:49:34;;;;;;;8.63;7.10;;;;;;;;;;496008;28;1033;-84
2024/03/13 00:49:54;;;;;;;10.13;7.25;;;;;;;;;;496757;28;1338;-84
2024/03/13 00:50:12;;;;;;;10.00;7.47;;;;;;;;;;496721;28;1302;-82
2024/03/13 00:50:28;;;;;;;9.65;7.10;;;;;;;;;;494830;28;1275;-84
2024/03/13 00:50:46;;;;;;;9.55;6.90;;;;;;;;;;501406;28;1290;-84
2024/03/13 00:51:01;;;;;;;9.30;7.20;;;;;;;;;;501963;28;973;-84
2024/03/13 00:51:20;;;;;;;9.30;7.10;;;;;;;;;;498582;28;1190;-84
2024/03/13 00:51:35;;;;;;;9.38;7.20;;;;;;;;;;492612;28;1436;-84
2024/03/13 00:51:51;;;;;;;10.35;7.28;;;;;;;;;;498847;28;1231;-84
2024/03/13 00:52:07;;;;;;;9.60;6.80;;;;;;;;;;495849;28;1114;-83
2024/03/13 00:52:22;;;;;;;8.73;6.80;;;;;;;;;;492866;28;993;-83
2024/03/13 00:52:38;;;;;;;9.20;6.97;;;;;;;;;;496950;28;1199;-84
2024/03/13 00:52:54;;;;;;;10.32;7.05;;;;;;;;;;497009;28;1326;-84
2024/03/13 00:53:09;;;;;;;10.65;7.18;;;;;;;;;;499014;28;1195;-85
2024/03/13 00:53:25;;;;;;;10.80;7.33;;;;;;;;;;495582;28;1277;-85
2024/03/13 00:53:41;;;;;;;10.80;7.22;;;;;;;;;;496458;28;1005;-85
2024/03/13 00:53:57;;;;;;;10.57;7.30;;;;;;;;;;500112;28;1137;-85
2024/03/13 00:54:13;;;;;;;9.73;6.95;;;;;;;;;;500506;28;1250;-85
2024/03/13 00:54:28;;;;;;;9.70;7.10;;;;;;;;;;494185;28;1088;-84
2024/03/13 00:54:44;;;;;;;9.90;7.17;;;;;;;;;;499034;28;1187;-84
2024/03/13 00:55:01;;;;;;;9.18;6.82;;;;;;;;;;498755;28;1005;-84
2024/03/13 00:55:17;;;;;;;8.68;6.88;;;;;;;;;;497840;28;1480;-85
2024/03/13 00:55:33;;;;;;;8.50;6.83;;;;;;;;;;493529;28;1247;-85
2024/03/13 00:55:49;;;;;;;8.85;6.68;;;;;;;;;;500018;28;1073;-85
2024/03/13 00:56:05;;;;;;;9.15;6.57;;;;;;;;;;500291;28;1175;-85
2024/03/13 00:56:21;;;;;;;8.93;7.00;;;;;;;;;;500780;28;1141;-85
2024/03/13 00:56:36;;;;;;;9.63;7.28;;;;;;;;;;499429;28;1313;-85
2024/03/13 00:56:52;;;;;;;9.25;6.80;;;;;;;;;;500402;28;1114;-86
2024/03/13 00:57:08;;;;;;;9.23;6.80;;;;;;;;;;499024;28;1307;-85
2024/03/13 00:57:24;;;;;;;9.23;6.68;;;;;;;;;;498740;28;1220;-86
2024/03/13 00:57:42;;;;;;;9.07;6.78;;;;;;;;;;501471;28;1342;-85
2024/03/13 00:57:58;;;;;;;9.20;7.20;;;;;;;;;;503055;28;1260;-85
2024/03/13 00:58:14;;;;;;;9.20;7.07;;;;;;;;;;501960;28;957;-86
2024/03/13 00:58:29;;;;;;;9.25;6.82;;;;;;;;;;499045;28;1199;-87
2024/03/13 00:58:45;;;;;;;9.23;6.77;;;;;;;;;;501306;28;1069;-86
2024/03/13 00:59:01;;;;;;;8.32;6.40;;;;;;;;;;501477;28;1959;-85
2024/03/13 00:59:17;;;;;;;8.43;6.40;;;;;;;;;;499133;28;1218;-85
2024/03/13 00:59:34;;;;;;;8.90;6.57;;;;;;;;;;494428;28;1163;-86
2024/03/13 00:59:49;;;;;;;8.80;6.60;;;;;;;;;;496978;28;1226;-85
2024/03/13 01:00:09;;;;;;;9.40;6.80;;;;;;;;;;498685;28;978;-84
2024/03/13 01:00:28;;;;;;;9.18;6.82;;;;;;;;;;495361;28;1408;-85
2024/03/13 01:00:48;;;;;;;8.35;6.53;;;;;;;;;;497156;28;1379;-85
2024/03/13 01:01:04;;;;;;;7.70;6.10;;;;;;;;;;499417;28;1333;-87
2024/03/13 01:01:21;;;;;;;8.60;6.00;;;;;;;;;;501126;28;1281;-86
2024/03/13 01:01:37;;;;;;;8.43;6.00;;;;;;;;;;496793;28;1393;-85
2024/03/13 01:01:55;;;;;;;8.10;6.20;;;;;;;;;;498922;28;1295;-86
2024/03/13 01:02:11;;;;;;;7.80;6.10;;;;;;;;;;496887;28;1092;-86
2024/03/13 01:02:26;;;;;;;7.47;6.32;;;;;;;;;;495041;28;1211;-86
2024/03/13 01:02:42;;;;;;;7.20;6.10;;;;;;;;;;496917;28;1271;-86
2024/03/13 01:02:58;;;;;;;7.72;6.18;;;;;;;;;;498792;28;1341;-86
2024/03/13 01:03:14;;;;;;;8.20;6.40;;;;;;;;;;495747;28;1106;-87
2024/03/13 01:03:29;;;;;;;8.18;6.30;;;;;;;;;;495479;28;1235;-84
2024/03/13 01:03:45;;;;;;;8.52;6.35;;;;;;;;;;498922;28;1191;-87
2024/03/13 01:04:01;;;;;;;8.13;6.05;;;;;;;;;;500696;28;1121;-85
2024/03/13 01:04:17;;;;;;;7.27;5.67;;;;;;;;;;499731;28;929;-86
2024/03/13 01:04:33;;;;;;;7.55;5.90;;;;;;;;;;497231;28;1327;-88
2024/03/13 01:04:48;;;;;;;8.02;6.35;;;;;;;;;;498777;28;1168;-85
2024/03/13 01:05:05;;;;;;;8.05;6.40;;;;;;;;;;498635;28;1149;-86
2024/03/13 01:05:21;;;;;;;8.50;6.40;;;;;;;;;;500067;28;1014;-85
2024/03/13 01:05:36;;;;;;;9.00;6.30;;;;;;;;;;496498;28;1417;-84
2024/03/13 01:05:55;;;;;;;8.73;6.00;;;;;;;;;;500770;28;891;-86
2024/03/13 01:06:11;;;;;;;8.23;6.20;;;;;;;;;;499776;28;1306;-85
2024/03/13 01:06:31;;;;;;;9.30;6.60;;;;;;;;;;498155;28;1290;-86
2024/03/13 01:06:46;;;;;;;9.10;6.70;;;;;;;;;;501385;28;1250;-87
2024/03/13 01:07:12;;;;;;;8.80;6.47;;;;;;;;;;501195;28;1325;-85
2024/03/13 01:07:28;;;;;;;7.75;6.13;;;;;;;;;;493422;28;1354;-85
2024/03/13 01:07:49;;;;;;;7.95;6.22;;;;;;;;;;498684;28;1105;-84
2024/03/13 01:08:05;;;;;;;8.57;6.38;;;;;;;;;;500546;28;1479;-84
2024/03/13 01:08:20;;;;;;;8.23;6.40;;;;;;;;;;498704;28;1077;-83
2024/03/13 01:08:36;;;;;;;8.05;6.38;;;;;;;;;;497529;28;1078;-86
2024/03/13 01:08:51;;;;;;;9.20;6.70;;;;;;;;;;499489;28;1359;-85
2024/03/13 01:09:10;;;;;;;9.30;6.60;;;;;;;;;;497530;28;1199;-84
2024/03/13 01:09:26;;;;;;;8.35;6.50;;;;;;;;;;495674;28;1398;-86
2024/03/13 01:09:42;;;;;;;8.45;6.60;;;;;;;;;;497118;28;1314;-85
2024/03/13 01:10:00;;;;;;;8.80;6.47;;;;;;;;;;497954;28;942;-86
2024/03/13 01:10:16;;;;;;;8.77;6.35;;;;;;;;;;498827;28;1081;-86
2024/03/13 01:10:32;;;;;;;9.00;6.57;;;;;;;;;;495599;28;1263;-86
2024/03/13 01:10:50;;;;;;;9.47;6.40;;;;;;;;;;500735;28;1244;-85
2024/03/13 01:11:06;;;;;;;8.38;6.20;;;;;;;;;;499775;28;1452;-85
2024/03/13 01:11:22;;;;;;;8.00;6.13;;;;;;;;;;497515;28;1390;-85
2024/03/13 01:11:37;;;;;;;8.65;6.35;;;;;;;;;;497300;28;1034;-85
2024/03/13 01:11:54;;;;;;;8.60;6.23;;;;;;;;;;497721;28;1040;-84
2024/03/13 01:12:10;;;;;;;9.00;6.28;;;;;;;;;;496296;28;1311;-85
2024/03/13 01:12:26;;;;;;;9.40;6.40;;;;;;;;;;495935;28;1010;-85
2024/03/13 01:12:41;;;;;;;8.57;6.33;;;;;;;;;;497349;28;1263;-85
2024/03/13 01:12:57;;;;;;;8.43;6.30;;;;;;;;;;499174;28;1342;-83
2024/03/13 01:13:13;;;;;;;9.00;6.50;;;;;;;;;;501750;28;1389;-86
2024/03/13 01:13:29;;;;;;;9.02;6.50;;;;;;;;;;496981;28;1032;-86
2024/03/13 01:13:44;;;;;;;9.03;6.30;;;;;;;;;;503542;28;1192;-85
2024/03/13 01:14:03;;;;;;;8.25;6.03;;;;;;;;;;501888;28;900;-81
2024/03/13 01:14:21;;;;;;;7.45;5.90;;;;;;;;;;503053;28;1393;-86
2024/03/13 01:14:39;;;;;;;8.32;6.10;;;;;;;;;;501999;28;1279;-83
2024/03/13 01:14:55;;;;;;;9.18;6.18;;;;;;;;;;504288;28;961;-87
2024/03/13 01:15:10;;;;;;;8.40;5.90;;;;;;;;;;504683;28;1116;-84
2024/03/13 01:15:27;;;;;;;7.03;5.68;;;;;;;;;;501481;28;970;-85
2024/03/13 01:15:43;;;;;;;7.72;5.80;;;;;;;;;;504150;28;1380;-85
2024/03/13 01:15:59;;;;;;;8.00;5.78;;;;;;;;;;502348;28;1259;-85
2024/03/13 01:16:15;;;;;;;7.57;5.72;;;;;;;;;;502579;28;1251;-85
2024/03/13 01:16:31;;;;;;;7.10;5.60;;;;;;;;;;499072;28;1389;-83
2024/03/13 01:16:53;;;;;;;7.65;5.97;;;;;;;;;;502089;28;1255;-83
2024/03/13 01:17:10;;;;;;;7.85;6.13;;;;;;;;;;499292;28;1139;-84
2024/03/13 01:17:25;;;;;;;7.63;5.93;;;;;;;;;;494256;28;1381;-86
2024/03/13 01:17:42;;;;;;;7.30;5.90;;;;;;;;;;497078;28;1274;-83
2024/03/13 01:17:58;;;;;;;7.28;5.75;;;;;;;;;;498952;28;1286;-84
2024/03/13 01:18:14;;;;;;;7.90;5.80;;;;;;;;;;499180;28;1268;-85
2024/03/13 01:18:30;;;;;;;8.65;5.93;;;;;;;;;;493729;28;1503;-82
2024/03/13 01:18:46;;;;;;;8.00;5.72;;;;;;;;;;499222;28;1065;-85
2024/03/13 01:19:02;;;;;;;8.48;6.00;;;;;;;;;;501832;28;1949;-85
2024/03/13 01:19:19;;;;;;;8.45;6.10;;;;;;;;;;503109;28;1520;-86
2024/03/13 01:19:36;;;;;;;8.32;5.80;;;;;;;;;;496845;28;1282;-84
2024/03/13 01:19:52;;;;;;;8.15;5.72;;;;;;;;;;501068;28;1275;-86
2024/03/13 01:20:08;;;;;;;7.07;5.88;;;;;;;;;;500257;28;1472;-84
2024/03/13 01:20:24;;;;;;;7.32;5.93;;;;;;;;;;498957;28;1164;-84
2024/03/13 01:20:40;;;;;;;8.07;6.25;;;;;;;;;;499031;28;1220;-84
2024/03/13 01:20:55;;;;;;;8.47;6.50;;;;;;;;;;500151;28;918;-85
2024/03/13 01:21:14;;;;;;;8.27;6.43;;;;;;;;;;500520;28;1189;-85
2024/03/13 01:21:29;;;;;;;7.93;6.28;;;;;;;;;;493928;28;1378;-85
2024/03/13 01:21:51;;;;;;;8.33;6.33;;;;;;;;;;498245;28;1456;-85
2024/03/13 01:22:12;;;;;;;7.65;6.32;;;;;;;;;;501554;28;969;-85
2024/03/13 01:22:28;;;;;;;8.45;6.15;;;;;;;;;;498454;28;1273;-85
2024/03/13 01:22:49;;;;;;;8.88;6.43;;;;;;;;;;499473;28;1325;-85
2024/03/13 01:23:07;;;;;;;8.25;6.32;;;;;;;;;;500659;28;970;-83
2024/03/13 01:23:22;;;;;;;7.78;5.88;;;;;;;;;;499188;28;1081;-83
2024/03/13 01:23:40;;;;;;;8.10;6.17;;;;;;;;;;498068;28;1190;-84
2024/03/13 01:23:56;;;;;;;7.57;6.00;;;;;;;;;;500524;28;1288;-85
2024/03/13 01:24:12;;;;;;;7.70;5.82;;;;;;;;;;503305;28;1300;-85
2024/03/13 01:24:27;;;;;;;8.75;6.13;;;;;;;;;;498388;28;963;-85
2024/03/13 01:24:45;;;;;;;8.60;6.10;;;;;;;;;;502896;28;1148;-85
2024/03/13 01:25:01;;;;;;;7.72;5.70;;;;;;;;;;501381;28;1334;-84
2024/03/13 01:25:19;;;;;;;7.82;5.93;;;;;;;;;;499353;28;1258;-85
2024/03/13 01:25:34;;;;;;;8.20;6.13;;;;;;;;;;493875;28;1397;-85
2024/03/13 01:25:53;;;;;;;8.07;6.20;;;;;;;;;;498734;28;1100;-85
2024/03/13 01:26:09;;;;;;;8.35;6.25;;;;;;;;;;499903;28;1308;-85
2024/03/13 01:26:24;;;;;;;8.88;6.25;;;;;;;;;;496122;28;1156;-85
2024/03/13 01:26:40;;;;;;;8.03;6.07;;;;;;;;;;498435;28;1119;-86
2024/03/13 01:26:56;;;;;;;8.15;6.10;;;;;;;;;;502769;28;1196;-86
2024/03/13 01:27:12;;;;;;;8.02;6.03;;;;;;;;;;502777;28;1062;-84
2024/03/13 01:27:28;;;;;;;7.68;6.00;;;;;;;;;;495861;28;1352;-85
2024/03/13 01:27:45;;;;;;;7.88;6.10;;;;;;;;;;499713;28;1288;-85
2024/03/13 01:28:01;;;;;;;8.60;6.15;;;;;;;;;;499254;28;895;-85
2024/03/13 01:28:18;;;;;;;8.98;6.40;;;;;;;;;;500739;28;1488;-85
2024/03/13 01:28:36;;;;;;;8.35;6.35;;;;;;;;;;495733;28;1379;-84
2024/03/13 01:28:52;;;;;;;8.02;5.93;;;;;;;;;;498198;28;1347;-85
2024/03/13 01:29:08;;;;;;;8.20;6.18;;;;;;;;;;497994;28;1168;-85
2024/03/13 01:29:23;;;;;;;8.75;6.60;;;;;;;;;;497854;28;1369;-86
2024/03/13 01:29:41;;;;;;;8.67;6.70;;;;;;;;;;498869;28;1341;-84
2024/03/13 01:29:57;;;;;;;8.18;6.47;;;;;;;;;;497925;28;1010;-86
2024/03/13 01:30:14;;;;;;;7.88;6.13;;;;;;;;;;499228;28;1313;-86
2024/03/13 01:30:30;;;;;;;8.60;6.20;;;;;;;;;;491934;28;1287;-87
2024/03/13 01:30:45;;;;;;;9.30;6.68;;;;;;;;;;498857;28;1396;-85
2024/03/13 01:31:01;;;;;;;8.80;6.80;;;;;;;;;;497187;28;918;-85
2024/03/13 01:31:18;;;;;;;8.35;6.63;;;;;;;;;;498242;28;1057;-86
2024/03/13 01:31:35;;;;;;;7.93;6.43;;;;;;;;;;492709;28;1507;-85
2024/03/13 01:31:51;;;;;;;8.60;6.45;;;;;;;;;;496730;28;1259;-86
2024/03/13 01:32:07;;;;;;;8.93;6.65;;;;;;;;;;499543;28;1443;-86
2024/03/13 01:32:23;;;;;;;9.55;6.65;;;;;;;;;;500196;28;1416;-87
2024/03/13 01:32:39;;;;;;;9.17;6.40;;;;;;;;;;498097;28;1179;-86
2024/03/13 01:32:54;;;;;;;9.15;6.85;;;;;;;;;;499203;28;1008;-87
2024/03/13 01:33:10;;;;;;;9.63;7.00;;;;;;;;;;498749;28;1258;-87
2024/03/13 01:33:28;;;;;;;9.07;6.70;;;;;;;;;;496209;28;1249;-86
2024/03/13 01:33:45;;;;;;;9.98;7.00;;;;;;;;;;502347;28;1303;-86
2024/03/13 01:34:01;;;;;;;10.27;7.20;;;;;;;;;;502407;28;957;-85
2024/03/13 01:34:20;;;;;;;9.38;7.05;;;;;;;;;;502852;28;1490;-86
2024/03/13 01:34:36;;;;;;;9.48;7.15;;;;;;;;;;499610;28;953;-87
2024/03/13 01:34:51;;;;;;;9.90;7.13;;;;;;;;;;501002;28;1139;-87
2024/03/13 01:35:09;;;;;;;9.80;7.03;;;;;;;;;;502339;28;890;-86
2024/03/13 01:35:24;;;;;;;10.27;7.40;;;;;;;;;;498144;28;1319;-86
2024/03/13 01:35:41;;;;;;;10.17;7.40;;;;;;;;;;497578;28;1332;-87
2024/03/13 01:35:57;;;;;;;10.43;7.50;;;;;;;;;;500700;28;1433;-87
2024/03/13 01:36:12;;;;;;;10.55;7.72;;;;;;;;;;500402;28;1009;-87
2024/03/13 01:38:11;;;;;;;10.98;7.65;;;;;;;;;;507396;28;931;-86
2024/03/13 01:38:26;;;;;;;10.35;7.13;;;;;;;;;;503678;28;1308;-88
2024/03/13 01:38:42;;;;;;;9.27;6.70;;;;;;;;;;503904;28;1183;-89
2024/03/13 01:38:57;;;;;;;8.37;6.40;;;;;;;;;;503669;28;1922;-88
2024/03/13 01:39:13;;;;;;;9.00;6.80;;;;;;;;;;501404;28;1178;-85
2024/03/13 01:39:29;;;;;;;10.00;7.35;;;;;;;;;;498511;28;1302;-88
2024/03/13 01:39:45;;;;;;;10.32;7.65;;;;;;;;;;502343;28;1266;-88
2024/03/13 01:40:04;;;;;;;9.80;7.37;;;;;;;;;;502214;28;1001;-88
2024/03/13 01:40:25;;;;;;;9.30;7.10;;;;;;;;;;498325;28;1373;-88
2024/03/13 01:55:04;;;;;;;10.63;8.10;;;;;;;;;;506096;28;1000;-86
2024/03/13 01:55:28;;;;;;;12.80;8.70;;;;;;;;;;503303;28;1210;-86
2024/03/13 01:55:44;;;;;;;11.13;7.93;;;;;;;;;;503409;28;1401;-86
2024/03/13 01:56:15;;;;;;;12.05;8.20;;;;;;;;;;503984;28;991;-86
2024/03/13 01:56:31;;;;;;;11.65;8.40;;;;;;;;;;496317;28;1275;-86
2024/03/13 01:56:59;;;;;;;11.68;8.32;;;;;;;;;;500792;28;1276;-87
2024/03/13 01:57:15;;;;;;;12.88;8.80;;;;;;;;;;502315;28;985;-86
2024/03/13 01:58:19;;;;;;;11.02;8.15;;;;;;;;;;502616;28;922;-87
2024/03/13 01:58:41;;;;;;;12.02;8.20;;;;;;;;;;501323;28;1072;-86
2024/03/13 01:59:03;;;;;;;12.13;8.20;;;;;;;;;;503694;28;1943;-87